sensor_id;sensor_type;location;lat;lon;timestamp;temperature;humidity
66873;HTU21D;53781;51.090;5.884;2022-09-12T00:00:07;16.50;74.77
66873;HTU21D;53781;51.090;5.884;2022-09-12T00:00:26;16.50;74.80
66873;HTU21D;53781;51.090;5.884;2022-09-12T00:00:41;16.51;74.73
66873;HTU21D;53781;51.090;5.884;2022-09-12T00:01:23;16.50;74.72
66873;HTU21D;53781;51.090;5.884;2022-09-12T00:01:39;16.47;74.76
66873;HTU21D;53781;51.090;5.884;2022-09-12T00:01:53;16.49;74.72
66873;HTU21D;53781;51.090;5.884;2022-09-12T00:02:08;16.49;74.76
66873;HTU21D;53781;51.090;5.884;2022-09-12T00:02:24;16.48;74.73
66873;HTU21D;53781;51.090;5.884;2022-09-12T00:02:39;16.50;74.76
66873;HTU21D;53781;51.090;5.884;2022-09-12T00:02:54;16.48;74.67
66873;HTU21D;53781;51.090;5.884;2022-09-12T00:03:09;16.48;74.64
66873;HTU21D;53781;51.090;5.884;2022-09-12T00:03:24;16.47;74.64
66873;HTU21D;53781;51.090;5.884;2022-09-12T00:03:39;16.47;74.57
66873;HTU21D;53781;51.090;5.884;2022-09-12T00:03:56;16.45;74.54
66873;HTU21D;53781;51.090;5.884;2022-09-12T00:04:11;16.46;74.51
66873;HTU21D;53781;51.090;5.884;2022-09-12T00:04:26;16.44;74.50
66873;HTU21D;53781;51.090;5.884;2022-09-12T00:04:41;16.44;74.48
66873;HTU21D;53781;51.090;5.884;2022-09-12T00:04:56;16.44;74.41
66873;HTU21D;53781;51.090;5.884;2022-09-12T00:05:11;16.44;74.43
66873;HTU21D;53781;51.090;5.884;2022-09-12T00:05:26;16.43;74.34
66873;HTU21D;53781;51.090;5.884;2022-09-12T00:05:43;16.43;74.32
66873;HTU21D;53781;51.090;5.884;2022-09-12T00:05:58;16.42;74.33
66873;HTU21D;53781;51.090;5.884;2022-09-12T00:06:20;16.41;74.33
66873;HTU21D;53781;51.090;5.884;2022-09-12T00:06:36;16.41;74.22
66873;HTU21D;53781;51.090;5.884;2022-09-12T00:06:51;16.39;74.28
66873;HTU21D;53781;51.090;5.884;2022-09-12T00:07:06;16.37;74.31
66873;HTU21D;53781;51.090;5.884;2022-09-12T00:07:21;16.37;74.28
66873;HTU21D;53781;51.090;5.884;2022-09-12T00:07:35;16.39;74.28
66873;HTU21D;53781;51.090;5.884;2022-09-12T00:07:50;16.36;74.32
66873;HTU21D;53781;51.090;5.884;2022-09-12T00:08:05;16.36;74.34
66873;HTU21D;53781;51.090;5.884;2022-09-12T00:08:19;16.36;74.26
66873;HTU21D;53781;51.090;5.884;2022-09-12T00:08:34;16.35;74.35
66873;HTU21D;53781;51.090;5.884;2022-09-12T00:08:50;16.35;74.33
66873;HTU21D;53781;51.090;5.884;2022-09-12T00:09:11;16.34;74.35
66873;HTU21D;53781;51.090;5.884;2022-09-12T00:09:26;16.33;74.32
66873;HTU21D;53781;51.090;5.884;2022-09-12T00:09:41;16.34;74.33
66873;HTU21D;53781;51.090;5.884;2022-09-12T00:09:56;16.34;74.34
66873;HTU21D;53781;51.090;5.884;2022-09-12T00:10:10;16.32;74.31
66873;HTU21D;53781;51.090;5.884;2022-09-12T00:10:25;16.31;74.28
66873;HTU21D;53781;51.090;5.884;2022-09-12T00:10:41;16.33;74.24
66873;HTU21D;53781;51.090;5.884;2022-09-12T00:10:56;16.31;74.18
66873;HTU21D;53781;51.090;5.884;2022-09-12T00:11:12;16.32;74.21
66873;HTU21D;53781;51.090;5.884;2022-09-12T00:11:27;16.32;74.22
66873;HTU21D;53781;51.090;5.884;2022-09-12T00:11:44;16.30;74.22
66873;HTU21D;53781;51.090;5.884;2022-09-12T00:11:59;16.30;74.23
66873;HTU21D;53781;51.090;5.884;2022-09-12T00:12:13;16.29;74.21
66873;HTU21D;53781;51.090;5.884;2022-09-12T00:12:28;16.28;74.21
66873;HTU21D;53781;51.090;5.884;2022-09-12T00:12:43;16.29;74.26
66873;HTU21D;53781;51.090;5.884;2022-09-12T00:12:57;16.29;74.22
66873;HTU21D;53781;51.090;5.884;2022-09-12T00:13:12;16.29;74.19
66873;HTU21D;53781;51.090;5.884;2022-09-12T00:13:27;16.29;74.27
66873;HTU21D;53781;51.090;5.884;2022-09-12T00:13:42;16.29;74.20
66873;HTU21D;53781;51.090;5.884;2022-09-12T00:13:59;16.28;74.20
66873;HTU21D;53781;51.090;5.884;2022-09-12T00:14:17;16.28;74.23
66873;HTU21D;53781;51.090;5.884;2022-09-12T00:14:32;16.27;74.22
66873;HTU21D;53781;51.090;5.884;2022-09-12T00:14:47;16.29;74.22
66873;HTU21D;53781;51.090;5.884;2022-09-12T00:15:03;16.28;74.19
66873;HTU21D;53781;51.090;5.884;2022-09-12T00:15:18;16.28;74.19
66873;HTU21D;53781;51.090;5.884;2022-09-12T00:15:40;16.26;74.25
66873;HTU21D;53781;51.090;5.884;2022-09-12T00:15:55;16.27;74.24
66873;HTU21D;53781;51.090;5.884;2022-09-12T00:16:15;16.28;74.25
66873;HTU21D;53781;51.090;5.884;2022-09-12T00:16:33;16.28;74.26
66873;HTU21D;53781;51.090;5.884;2022-09-12T00:16:49;16.27;74.31
66873;HTU21D;53781;51.090;5.884;2022-09-12T00:17:04;16.27;74.32
66873;HTU21D;53781;51.090;5.884;2022-09-12T00:17:19;16.26;74.32
66873;HTU21D;53781;51.090;5.884;2022-09-12T00:17:34;16.28;74.35
66873;HTU21D;53781;51.090;5.884;2022-09-12T00:17:49;16.28;74.34
66873;HTU21D;53781;51.090;5.884;2022-09-12T00:18:05;16.26;74.32
66873;HTU21D;53781;51.090;5.884;2022-09-12T00:18:20;16.28;74.21
66873;HTU21D;53781;51.090;5.884;2022-09-12T00:18:34;16.29;74.18
66873;HTU21D;53781;51.090;5.884;2022-09-12T00:18:49;16.26;74.14
66873;HTU21D;53781;51.090;5.884;2022-09-12T00:19:05;16.26;74.09
66873;HTU21D;53781;51.090;5.884;2022-09-12T00:19:20;16.26;74.07
66873;HTU21D;53781;51.090;5.884;2022-09-12T00:19:34;16.25;74.09
66873;HTU21D;53781;51.090;5.884;2022-09-12T00:19:49;16.24;74.01
66873;HTU21D;53781;51.090;5.884;2022-09-12T00:20:06;16.24;74.03
66873;HTU21D;53781;51.090;5.884;2022-09-12T00:20:22;16.25;74.02
66873;HTU21D;53781;51.090;5.884;2022-09-12T00:20:44;16.25;74.02
66873;HTU21D;53781;51.090;5.884;2022-09-12T00:21:03;16.22;74.02
66873;HTU21D;53781;51.090;5.884;2022-09-12T00:21:19;16.24;74.03
66873;HTU21D;53781;51.090;5.884;2022-09-12T00:21:36;16.21;74.09
66873;HTU21D;53781;51.090;5.884;2022-09-12T00:21:52;16.22;74.06
66873;HTU21D;53781;51.090;5.884;2022-09-12T00:22:06;16.22;74.08
66873;HTU21D;53781;51.090;5.884;2022-09-12T00:22:21;16.20;74.09
66873;HTU21D;53781;51.090;5.884;2022-09-12T00:22:36;16.22;74.06
66873;HTU21D;53781;51.090;5.884;2022-09-12T00:22:51;16.20;74.06
66873;HTU21D;53781;51.090;5.884;2022-09-12T00:23:06;16.20;74.05
66873;HTU21D;53781;51.090;5.884;2022-09-12T00:23:20;16.20;74.03
66873;HTU21D;53781;51.090;5.884;2022-09-12T00:23:35;16.18;74.07
66873;HTU21D;53781;51.090;5.884;2022-09-12T00:23:50;16.20;74.01
66873;HTU21D;53781;51.090;5.884;2022-09-12T00:24:05;16.18;74.00
66873;HTU21D;53781;51.090;5.884;2022-09-12T00:24:21;16.18;74.02
66873;HTU21D;53781;51.090;5.884;2022-09-12T00:24:36;16.18;74.03
66873;HTU21D;53781;51.090;5.884;2022-09-12T00:24:50;16.17;74.03
66873;HTU21D;53781;51.090;5.884;2022-09-12T00:25:05;16.17;73.99
66873;HTU21D;53781;51.090;5.884;2022-09-12T00:25:20;16.16;74.06
66873;HTU21D;53781;51.090;5.884;2022-09-12T00:25:42;16.17;74.10
66873;HTU21D;53781;51.090;5.884;2022-09-12T00:25:57;16.16;74.16
66873;HTU21D;53781;51.090;5.884;2022-09-12T00:26:13;16.16;74.24
66873;HTU21D;53781;51.090;5.884;2022-09-12T00:26:28;16.16;74.28
66873;HTU21D;53781;51.090;5.884;2022-09-12T00:26:43;16.16;74.28
66873;HTU21D;53781;51.090;5.884;2022-09-12T00:26:58;16.16;74.38
66873;HTU21D;53781;51.090;5.884;2022-09-12T00:27:13;16.15;74.42
66873;HTU21D;53781;51.090;5.884;2022-09-12T00:27:27;16.17;74.36
66873;HTU21D;53781;51.090;5.884;2022-09-12T00:27:42;16.16;74.44
66873;HTU21D;53781;51.090;5.884;2022-09-12T00:27:57;16.16;74.45
66873;HTU21D;53781;51.090;5.884;2022-09-12T00:28:13;16.17;74.43
66873;HTU21D;53781;51.090;5.884;2022-09-12T00:28:28;16.16;74.44
66873;HTU21D;53781;51.090;5.884;2022-09-12T00:28:43;16.14;74.43
66873;HTU21D;53781;51.090;5.884;2022-09-12T00:28:58;16.15;74.44
66873;HTU21D;53781;51.090;5.884;2022-09-12T00:29:19;16.16;74.51
66873;HTU21D;53781;51.090;5.884;2022-09-12T00:29:34;16.15;74.48
66873;HTU21D;53781;51.090;5.884;2022-09-12T00:29:49;16.14;74.50
66873;HTU21D;53781;51.090;5.884;2022-09-12T00:30:04;16.15;74.45
66873;HTU21D;53781;51.090;5.884;2022-09-12T00:30:19;16.14;74.49
66873;HTU21D;53781;51.090;5.884;2022-09-12T00:30:34;16.14;74.49
66873;HTU21D;53781;51.090;5.884;2022-09-12T00:30:49;16.13;74.44
66873;HTU21D;53781;51.090;5.884;2022-09-12T00:31:07;16.14;74.41
66873;HTU21D;53781;51.090;5.884;2022-09-12T00:31:23;16.13;74.47
66873;HTU21D;53781;51.090;5.884;2022-09-12T00:31:45;16.14;74.47
66873;HTU21D;53781;51.090;5.884;2022-09-12T00:32:00;16.14;74.49
66873;HTU21D;53781;51.090;5.884;2022-09-12T00:32:14;16.14;74.52
66873;HTU21D;53781;51.090;5.884;2022-09-12T00:32:29;16.12;74.55
66873;HTU21D;53781;51.090;5.884;2022-09-12T00:32:44;16.12;74.55
66873;HTU21D;53781;51.090;5.884;2022-09-12T00:32:59;16.13;74.52
66873;HTU21D;53781;51.090;5.884;2022-09-12T00:33:15;16.11;74.59
66873;HTU21D;53781;51.090;5.884;2022-09-12T00:33:30;16.13;74.56
66873;HTU21D;53781;51.090;5.884;2022-09-12T00:33:45;16.12;74.59
66873;HTU21D;53781;51.090;5.884;2022-09-12T00:34:00;16.13;74.60
66873;HTU21D;53781;51.090;5.884;2022-09-12T00:34:15;16.12;74.64
66873;HTU21D;53781;51.090;5.884;2022-09-12T00:34:30;16.12;74.64
66873;HTU21D;53781;51.090;5.884;2022-09-12T00:34:45;16.12;74.64
66873;HTU21D;53781;51.090;5.884;2022-09-12T00:35:00;16.11;74.67
66873;HTU21D;53781;51.090;5.884;2022-09-12T00:35:16;16.11;74.64
66873;HTU21D;53781;51.090;5.884;2022-09-12T00:35:31;16.11;74.71
66873;HTU21D;53781;51.090;5.884;2022-09-12T00:35:50;16.11;74.73
66873;HTU21D;53781;51.090;5.884;2022-09-12T00:36:09;16.12;74.73
66873;HTU21D;53781;51.090;5.884;2022-09-12T00:36:26;16.12;74.76
66873;HTU21D;53781;51.090;5.884;2022-09-12T00:36:41;16.11;74.72
66873;HTU21D;53781;51.090;5.884;2022-09-12T00:36:56;16.11;74.70
66873;HTU21D;53781;51.090;5.884;2022-09-12T00:37:11;16.11;74.67
66873;HTU21D;53781;51.090;5.884;2022-09-12T00:37:25;16.10;74.64
66873;HTU21D;53781;51.090;5.884;2022-09-12T00:37:40;16.10;74.67
66873;HTU21D;53781;51.090;5.884;2022-09-12T00:37:55;16.10;74.67
66873;HTU21D;53781;51.090;5.884;2022-09-12T00:38:13;16.10;74.63
66873;HTU21D;53781;51.090;5.884;2022-09-12T00:38:28;16.08;74.64
66873;HTU21D;53781;51.090;5.884;2022-09-12T00:38:43;16.10;74.60
66873;HTU21D;53781;51.090;5.884;2022-09-12T00:38:58;16.07;74.58
66873;HTU21D;53781;51.090;5.884;2022-09-12T00:39:16;16.07;74.57
66873;HTU21D;53781;51.090;5.884;2022-09-12T00:39:31;16.08;74.54
66873;HTU21D;53781;51.090;5.884;2022-09-12T00:39:46;16.07;74.51
66873;HTU21D;53781;51.090;5.884;2022-09-12T00:40:01;16.06;74.51
66873;HTU21D;53781;51.090;5.884;2022-09-12T00:40:16;16.06;74.48
66873;HTU21D;53781;51.090;5.884;2022-09-12T00:40:31;16.06;74.47
66873;HTU21D;53781;51.090;5.884;2022-09-12T00:40:47;16.05;74.54
66873;HTU21D;53781;51.090;5.884;2022-09-12T00:41:01;16.06;74.48
66873;HTU21D;53781;51.090;5.884;2022-09-12T00:41:20;16.06;74.47
66873;HTU21D;53781;51.090;5.884;2022-09-12T00:41:38;16.05;74.53
66873;HTU21D;53781;51.090;5.884;2022-09-12T00:41:52;16.06;74.52
66873;HTU21D;53781;51.090;5.884;2022-09-12T00:42:09;16.05;74.54
66873;HTU21D;53781;51.090;5.884;2022-09-12T00:42:23;16.03;74.54
66873;HTU21D;53781;51.090;5.884;2022-09-12T00:42:38;16.06;74.54
66873;HTU21D;53781;51.090;5.884;2022-09-12T00:42:53;16.06;74.51
66873;HTU21D;53781;51.090;5.884;2022-09-12T00:43:33;16.05;74.54
66873;HTU21D;53781;51.090;5.884;2022-09-12T00:43:52;16.04;74.56
66873;HTU21D;53781;51.090;5.884;2022-09-12T00:44:47;16.03;74.47
66873;HTU21D;53781;51.090;5.884;2022-09-12T00:45:02;16.04;74.47
66873;HTU21D;53781;51.090;5.884;2022-09-12T00:45:27;16.01;74.46
66873;HTU21D;53781;51.090;5.884;2022-09-12T00:45:42;16.01;74.41
66873;HTU21D;53781;51.090;5.884;2022-09-12T00:46:03;16.02;74.34
66873;HTU21D;53781;51.090;5.884;2022-09-12T00:46:42;15.99;74.35
66873;HTU21D;53781;51.090;5.884;2022-09-12T00:47:02;15.97;74.29
66873;HTU21D;53781;51.090;5.884;2022-09-12T00:47:29;15.97;74.32
66873;HTU21D;53781;51.090;5.884;2022-09-12T00:47:45;15.96;74.32
66873;HTU21D;53781;51.090;5.884;2022-09-12T00:48:02;15.93;74.31
66873;HTU21D;53781;51.090;5.884;2022-09-12T00:48:32;15.93;74.33
66873;HTU21D;53781;51.090;5.884;2022-09-12T00:49:38;15.91;74.41
66873;HTU21D;53781;51.090;5.884;2022-09-12T00:50:11;15.89;74.49
66873;HTU21D;53781;51.090;5.884;2022-09-12T00:50:28;15.88;74.49
66873;HTU21D;53781;51.090;5.884;2022-09-12T00:50:44;15.88;74.54
66873;HTU21D;53781;51.090;5.884;2022-09-12T00:51:00;15.87;74.53
66873;HTU21D;53781;51.090;5.884;2022-09-12T00:51:16;15.86;74.54
66873;HTU21D;53781;51.090;5.884;2022-09-12T00:51:35;15.86;74.50
66873;HTU21D;53781;51.090;5.884;2022-09-12T00:52:05;15.84;74.58
66873;HTU21D;53781;51.090;5.884;2022-09-12T00:52:34;15.83;74.67
66873;HTU21D;53781;51.090;5.884;2022-09-12T00:52:57;15.82;74.67
66873;HTU21D;53781;51.090;5.884;2022-09-12T00:53:12;15.84;74.69
66873;HTU21D;53781;51.090;5.884;2022-09-12T00:53:28;15.82;74.72
66873;HTU21D;53781;51.090;5.884;2022-09-12T00:53:47;15.80;74.74
66873;HTU21D;53781;51.090;5.884;2022-09-12T00:54:08;15.82;74.78
66873;HTU21D;53781;51.090;5.884;2022-09-12T00:54:29;15.81;74.76
66873;HTU21D;53781;51.090;5.884;2022-09-12T00:54:54;15.82;74.79
66873;HTU21D;53781;51.090;5.884;2022-09-12T00:55:20;15.81;74.80
66873;HTU21D;53781;51.090;5.884;2022-09-12T00:55:40;15.81;74.84
66873;HTU21D;53781;51.090;5.884;2022-09-12T00:55:57;15.82;74.86
66873;HTU21D;53781;51.090;5.884;2022-09-12T00:56:15;15.82;74.89
66873;HTU21D;53781;51.090;5.884;2022-09-12T00:56:31;15.81;74.89
66873;HTU21D;53781;51.090;5.884;2022-09-12T00:56:51;15.84;74.96
66873;HTU21D;53781;51.090;5.884;2022-09-12T00:57:09;15.82;74.96
66873;HTU21D;53781;51.090;5.884;2022-09-12T00:57:31;15.82;74.97
66873;HTU21D;53781;51.090;5.884;2022-09-12T00:57:54;15.83;74.91
66873;HTU21D;53781;51.090;5.884;2022-09-12T00:58:16;15.83;74.96
66873;HTU21D;53781;51.090;5.884;2022-09-12T00:59:13;15.81;74.93
66873;HTU21D;53781;51.090;5.884;2022-09-12T00:59:28;15.80;75.00
66873;HTU21D;53781;51.090;5.884;2022-09-12T01:00:10;15.80;75.05
66873;HTU21D;53781;51.090;5.884;2022-09-12T01:00:31;15.81;75.02
66873;HTU21D;53781;51.090;5.884;2022-09-12T01:00:46;15.81;75.03
66873;HTU21D;53781;51.090;5.884;2022-09-12T01:01:01;15.80;74.99
66873;HTU21D;53781;51.090;5.884;2022-09-12T01:01:16;15.80;75.05
66873;HTU21D;53781;51.090;5.884;2022-09-12T01:01:31;15.80;75.06
66873;HTU21D;53781;51.090;5.884;2022-09-12T01:01:49;15.78;75.09
66873;HTU21D;53781;51.090;5.884;2022-09-12T01:02:05;15.80;74.96
66873;HTU21D;53781;51.090;5.884;2022-09-12T01:02:21;15.77;75.04
66873;HTU21D;53781;51.090;5.884;2022-09-12T01:02:36;15.77;75.09
66873;HTU21D;53781;51.090;5.884;2022-09-12T01:02:59;15.77;75.08
66873;HTU21D;53781;51.090;5.884;2022-09-12T01:03:17;15.76;75.14
66873;HTU21D;53781;51.090;5.884;2022-09-12T01:03:33;15.77;75.12
66873;HTU21D;53781;51.090;5.884;2022-09-12T01:03:47;15.75;75.15
66873;HTU21D;53781;51.090;5.884;2022-09-12T01:04:03;15.75;75.21
66873;HTU21D;53781;51.090;5.884;2022-09-12T01:04:21;15.75;75.17
66873;HTU21D;53781;51.090;5.884;2022-09-12T01:04:39;15.76;75.13
66873;HTU21D;53781;51.090;5.884;2022-09-12T01:04:54;15.75;75.19
66873;HTU21D;53781;51.090;5.884;2022-09-12T01:05:12;15.74;75.11
66873;HTU21D;53781;51.090;5.884;2022-09-12T01:05:30;15.74;75.12
66873;HTU21D;53781;51.090;5.884;2022-09-12T01:06:19;15.74;75.12
66873;HTU21D;53781;51.090;5.884;2022-09-12T01:06:39;15.74;75.06
66873;HTU21D;53781;51.090;5.884;2022-09-12T01:06:56;15.74;75.12
66873;HTU21D;53781;51.090;5.884;2022-09-12T01:07:12;15.74;75.12
66873;HTU21D;53781;51.090;5.884;2022-09-12T01:07:29;15.72;75.07
66873;HTU21D;53781;51.090;5.884;2022-09-12T01:07:44;15.75;75.09
66873;HTU21D;53781;51.090;5.884;2022-09-12T01:08:04;15.73;75.14
66873;HTU21D;53781;51.090;5.884;2022-09-12T01:08:19;15.73;75.08
66873;HTU21D;53781;51.090;5.884;2022-09-12T01:08:36;15.72;75.09
66873;HTU21D;53781;51.090;5.884;2022-09-12T01:08:53;15.71;75.10
66873;HTU21D;53781;51.090;5.884;2022-09-12T01:09:15;15.73;75.09
66873;HTU21D;53781;51.090;5.884;2022-09-12T01:09:31;15.71;75.13
66873;HTU21D;53781;51.090;5.884;2022-09-12T01:09:46;15.69;75.15
66873;HTU21D;53781;51.090;5.884;2022-09-12T01:10:02;15.71;75.18
66873;HTU21D;53781;51.090;5.884;2022-09-12T01:10:18;15.70;75.19
66873;HTU21D;53781;51.090;5.884;2022-09-12T01:10:37;15.72;75.21
66873;HTU21D;53781;51.090;5.884;2022-09-12T01:10:52;15.78;75.05
66873;HTU21D;53781;51.090;5.884;2022-09-12T01:11:08;15.76;75.01
66873;HTU21D;53781;51.090;5.884;2022-09-12T01:11:25;15.76;75.11
66873;HTU21D;53781;51.090;5.884;2022-09-12T01:11:41;15.73;75.06
66873;HTU21D;53781;51.090;5.884;2022-09-12T01:12:01;15.73;75.09
66873;HTU21D;53781;51.090;5.884;2022-09-12T01:12:16;15.73;75.05
66873;HTU21D;53781;51.090;5.884;2022-09-12T01:12:32;15.74;75.08
66873;HTU21D;53781;51.090;5.884;2022-09-12T01:12:48;15.72;75.11
66873;HTU21D;53781;51.090;5.884;2022-09-12T01:13:06;15.74;75.14
66873;HTU21D;53781;51.090;5.884;2022-09-12T01:13:22;15.73;75.09
66873;HTU21D;53781;51.090;5.884;2022-09-12T01:13:37;15.72;75.09
66873;HTU21D;53781;51.090;5.884;2022-09-12T01:13:51;15.73;75.02
66873;HTU21D;53781;51.090;5.884;2022-09-12T01:14:07;15.74;75.04
66873;HTU21D;53781;51.090;5.884;2022-09-12T01:14:22;15.72;74.99
66873;HTU21D;53781;51.090;5.884;2022-09-12T01:14:38;15.72;74.98
66873;HTU21D;53781;51.090;5.884;2022-09-12T01:14:53;15.73;75.00
66873;HTU21D;53781;51.090;5.884;2022-09-12T01:15:09;15.72;75.01
66873;HTU21D;53781;51.090;5.884;2022-09-12T01:15:24;15.72;74.99
66873;HTU21D;53781;51.090;5.884;2022-09-12T01:15:39;15.71;75.02
66873;HTU21D;53781;51.090;5.884;2022-09-12T01:15:55;15.71;74.99
66873;HTU21D;53781;51.090;5.884;2022-09-12T01:16:10;15.69;74.98
66873;HTU21D;53781;51.090;5.884;2022-09-12T01:16:25;15.72;74.89
66873;HTU21D;53781;51.090;5.884;2022-09-12T01:16:40;15.71;74.88
66873;HTU21D;53781;51.090;5.884;2022-09-12T01:16:56;15.70;74.86
66873;HTU21D;53781;51.090;5.884;2022-09-12T01:17:12;15.67;74.84
66873;HTU21D;53781;51.090;5.884;2022-09-12T01:18:28;15.66;74.80
66873;HTU21D;53781;51.090;5.884;2022-09-12T01:18:54;15.67;74.81
66873;HTU21D;53781;51.090;5.884;2022-09-12T01:19:48;15.63;74.79
66873;HTU21D;53781;51.090;5.884;2022-09-12T01:22:56;15.59;74.83
66873;HTU21D;53781;51.090;5.884;2022-09-12T01:25:02;15.58;74.64
66873;HTU21D;53781;51.090;5.884;2022-09-12T01:25:48;15.57;74.64
66873;HTU21D;53781;51.090;5.884;2022-09-12T01:28:02;15.55;74.92
66873;HTU21D;53781;51.090;5.884;2022-09-12T01:31:04;15.58;75.18
66873;HTU21D;53781;51.090;5.884;2022-09-12T01:31:36;15.58;75.20
66873;HTU21D;53781;51.090;5.884;2022-09-12T01:32:46;15.55;75.09
66873;HTU21D;53781;51.090;5.884;2022-09-12T01:34:23;15.54;75.07
66873;HTU21D;53781;51.090;5.884;2022-09-12T01:34:50;15.52;75.04
66873;HTU21D;53781;51.090;5.884;2022-09-12T01:37:13;15.46;74.89
66873;HTU21D;53781;51.090;5.884;2022-09-12T01:37:37;15.45;74.90
66873;HTU21D;53781;51.090;5.884;2022-09-12T01:38:49;15.45;75.00
66873;HTU21D;53781;51.090;5.884;2022-09-12T01:40:30;15.44;75.09
66873;HTU21D;53781;51.090;5.884;2022-09-12T01:42:35;15.43;75.15
66873;HTU21D;53781;51.090;5.884;2022-09-12T01:43:16;15.42;75.20
66873;HTU21D;53781;51.090;5.884;2022-09-12T01:44:38;15.42;75.27
66873;HTU21D;53781;51.090;5.884;2022-09-12T01:45:10;15.41;75.37
66873;HTU21D;53781;51.090;5.884;2022-09-12T01:45:43;15.43;75.41
66873;HTU21D;53781;51.090;5.884;2022-09-12T01:46:12;15.42;75.44
66873;HTU21D;53781;51.090;5.884;2022-09-12T01:46:34;15.43;75.51
66873;HTU21D;53781;51.090;5.884;2022-09-12T01:47:45;15.45;75.70
66873;HTU21D;53781;51.090;5.884;2022-09-12T01:48:10;15.45;75.67
66873;HTU21D;53781;51.090;5.884;2022-09-12T01:49:28;15.47;75.63
66873;HTU21D;53781;51.090;5.884;2022-09-12T01:50:20;15.45;75.47
66873;HTU21D;53781;51.090;5.884;2022-09-12T01:50:56;15.46;75.39
66873;HTU21D;53781;51.090;5.884;2022-09-12T01:51:15;15.48;75.33
66873;HTU21D;53781;51.090;5.884;2022-09-12T01:52:17;15.47;75.25
66873;HTU21D;53781;51.090;5.884;2022-09-12T01:53:11;15.47;75.13
66873;HTU21D;53781;51.090;5.884;2022-09-12T01:53:43;15.46;75.09
66873;HTU21D;53781;51.090;5.884;2022-09-12T01:54:09;15.45;75.14
66873;HTU21D;53781;51.090;5.884;2022-09-12T01:54:36;15.46;75.15
66873;HTU21D;53781;51.090;5.884;2022-09-12T01:55:39;15.46;75.14
66873;HTU21D;53781;51.090;5.884;2022-09-12T01:56:01;15.46;75.10
66873;HTU21D;53781;51.090;5.884;2022-09-12T01:56:25;15.44;75.05
66873;HTU21D;53781;51.090;5.884;2022-09-12T01:56:42;15.44;75.03
66873;HTU21D;53781;51.090;5.884;2022-09-12T01:57:03;15.45;75.01
66873;HTU21D;53781;51.090;5.884;2022-09-12T01:57:28;15.44;75.03
66873;HTU21D;53781;51.090;5.884;2022-09-12T01:57:56;15.43;75.14
66873;HTU21D;53781;51.090;5.884;2022-09-12T01:58:20;15.44;75.09
66873;HTU21D;53781;51.090;5.884;2022-09-12T01:58:49;15.43;75.12
66873;HTU21D;53781;51.090;5.884;2022-09-12T01:59:24;15.42;75.02
66873;HTU21D;53781;51.090;5.884;2022-09-12T01:59:47;15.43;75.07
66873;HTU21D;53781;51.090;5.884;2022-09-12T02:00:09;15.42;75.09
66873;HTU21D;53781;51.090;5.884;2022-09-12T02:00:41;15.42;75.07
66873;HTU21D;53781;51.090;5.884;2022-09-12T02:01:08;15.41;75.05
66873;HTU21D;53781;51.090;5.884;2022-09-12T02:01:31;15.39;75.05
66873;HTU21D;53781;51.090;5.884;2022-09-12T02:02:00;15.41;75.02
66873;HTU21D;53781;51.090;5.884;2022-09-12T02:03:00;15.39;75.02
66873;HTU21D;53781;51.090;5.884;2022-09-12T02:03:26;15.38;75.00
66873;HTU21D;53781;51.090;5.884;2022-09-12T02:03:51;15.40;74.99
66873;HTU21D;53781;51.090;5.884;2022-09-12T02:04:15;15.37;74.92
66873;HTU21D;53781;51.090;5.884;2022-09-12T02:04:43;15.34;74.91
66873;HTU21D;53781;51.090;5.884;2022-09-12T02:05:19;15.34;74.84
66873;HTU21D;53781;51.090;5.884;2022-09-12T02:05:44;15.34;74.85
66873;HTU21D;53781;51.090;5.884;2022-09-12T02:06:29;15.31;74.90
66873;HTU21D;53781;51.090;5.884;2022-09-12T02:06:51;15.32;74.86
66873;HTU21D;53781;51.090;5.884;2022-09-12T02:07:20;15.31;74.91
66873;HTU21D;53781;51.090;5.884;2022-09-12T02:07:46;15.30;74.93
66873;HTU21D;53781;51.090;5.884;2022-09-12T02:08:40;15.28;75.01
66873;HTU21D;53781;51.090;5.884;2022-09-12T02:09:03;15.28;75.02
66873;HTU21D;53781;51.090;5.884;2022-09-12T02:09:28;15.28;75.06
66873;HTU21D;53781;51.090;5.884;2022-09-12T02:10:14;15.27;75.20
66873;HTU21D;53781;51.090;5.884;2022-09-12T02:10:35;15.28;75.18
66873;HTU21D;53781;51.090;5.884;2022-09-12T02:10:56;15.29;75.21
66873;HTU21D;53781;51.090;5.884;2022-09-12T02:11:12;15.28;75.21
66873;HTU21D;53781;51.090;5.884;2022-09-12T02:11:32;15.28;75.18
66873;HTU21D;53781;51.090;5.884;2022-09-12T02:11:51;15.29;75.21
66873;HTU21D;53781;51.090;5.884;2022-09-12T02:12:10;15.27;75.21
66873;HTU21D;53781;51.090;5.884;2022-09-12T02:12:33;15.26;75.25
66873;HTU21D;53781;51.090;5.884;2022-09-12T02:13:11;15.28;75.27
66873;HTU21D;53781;51.090;5.884;2022-09-12T02:13:57;15.26;75.21
66873;HTU21D;53781;51.090;5.884;2022-09-12T02:14:20;15.25;75.20
66873;HTU21D;53781;51.090;5.884;2022-09-12T02:14:41;15.26;75.25
66873;HTU21D;53781;51.090;5.884;2022-09-12T02:15:03;15.25;75.24
66873;HTU21D;53781;51.090;5.884;2022-09-12T02:15:26;15.24;75.27
66873;HTU21D;53781;51.090;5.884;2022-09-12T02:15:50;15.24;75.28
66873;HTU21D;53781;51.090;5.884;2022-09-12T02:16:13;15.23;75.31
66873;HTU21D;53781;51.090;5.884;2022-09-12T02:16:36;15.24;75.31
66873;HTU21D;53781;51.090;5.884;2022-09-12T02:16:58;15.23;75.31
66873;HTU21D;53781;51.090;5.884;2022-09-12T02:17:21;15.24;75.33
66873;HTU21D;53781;51.090;5.884;2022-09-12T02:17:40;15.21;75.34
66873;HTU21D;53781;51.090;5.884;2022-09-12T02:17:59;15.22;75.31
66873;HTU21D;53781;51.090;5.884;2022-09-12T02:18:17;15.21;75.28
66873;HTU21D;53781;51.090;5.884;2022-09-12T02:18:33;15.23;75.26
66873;HTU21D;53781;51.090;5.884;2022-09-12T02:18:56;15.22;75.25
66873;HTU21D;53781;51.090;5.884;2022-09-12T02:19:21;15.23;75.22
66873;HTU21D;53781;51.090;5.884;2022-09-12T02:19:43;15.21;75.21
66873;HTU21D;53781;51.090;5.884;2022-09-12T02:20:13;15.21;75.20
66873;HTU21D;53781;51.090;5.884;2022-09-12T02:20:34;15.18;75.20
66873;HTU21D;53781;51.090;5.884;2022-09-12T02:20:50;15.19;75.21
66873;HTU21D;53781;51.090;5.884;2022-09-12T02:21:06;15.21;75.25
66873;HTU21D;53781;51.090;5.884;2022-09-12T02:21:25;15.18;75.25
66873;HTU21D;53781;51.090;5.884;2022-09-12T02:21:46;15.19;75.29
66873;HTU21D;53781;51.090;5.884;2022-09-12T02:22:05;15.17;75.36
66873;HTU21D;53781;51.090;5.884;2022-09-12T02:22:24;15.18;75.37
66873;HTU21D;53781;51.090;5.884;2022-09-12T02:22:42;15.18;75.41
66873;HTU21D;53781;51.090;5.884;2022-09-12T02:22:59;15.18;75.44
66873;HTU21D;53781;51.090;5.884;2022-09-12T02:23:23;15.19;75.47
66873;HTU21D;53781;51.090;5.884;2022-09-12T02:23:45;15.18;75.48
66873;HTU21D;53781;51.090;5.884;2022-09-12T02:24:03;15.17;75.50
66873;HTU21D;53781;51.090;5.884;2022-09-12T02:24:21;15.19;75.52
66873;HTU21D;53781;51.090;5.884;2022-09-12T02:24:42;15.21;75.46
66873;HTU21D;53781;51.090;5.884;2022-09-12T02:24:59;15.22;75.42
66873;HTU21D;53781;51.090;5.884;2022-09-12T02:25:18;15.22;75.33
66873;HTU21D;53781;51.090;5.884;2022-09-12T02:25:37;15.22;75.32